sensor_id;sensor_type;location;lat;lon;timestamp;P1;durP1;ratioP1;P2;durP2;ratioP2
46745;SDS011;32493;50.514;9.678;2023-04-25T00:01:16;27.80;;;14.18;;
46745;SDS011;32493;50.514;9.678;2023-04-25T00:03:26;25.15;;;13.55;;
46745;SDS011;32493;50.514;9.678;2023-04-25T00:05:33;24.00;;;14.45;;
46745;SDS011;32493;50.514;9.678;2023-04-25T00:07:43;23.35;;;13.70;;
46745;SDS011;32493;50.514;9.678;2023-04-25T00:09:49;27.42;;;14.10;;
46745;SDS011;32493;50.514;9.678;2023-04-25T00:12:02;26.35;;;13.00;;
46745;SDS011;32493;50.514;9.678;2023-04-25T00:14:09;25.70;;;14.82;;
46745;SDS011;32493;50.514;9.678;2023-04-25T00:16:15;22.13;;;13.00;;
46745;SDS011;32493;50.514;9.678;2023-04-25T00:18:23;22.98;;;13.20;;
46745;SDS011;32493;50.514;9.678;2023-04-25T00:20:44;25.10;;;13.48;;
46745;SDS011;32493;50.514;9.678;2023-04-25T00:22:58;23.65;;;12.38;;
46745;SDS011;32493;50.514;9.678;2023-04-25T00:25:09;23.05;;;13.02;;
46745;SDS011;32493;50.514;9.678;2023-04-25T00:27:15;22.15;;;13.05;;
46745;SDS011;32493;50.514;9.678;2023-04-25T00:29:23;20.88;;;12.75;;
46745;SDS011;32493;50.514;9.678;2023-04-25T00:31:30;21.02;;;12.23;;
46745;SDS011;32493;50.514;9.678;2023-04-25T00:33:41;18.73;;;11.13;;
46745;SDS011;32493;50.514;9.678;2023-04-25T00:35:47;19.38;;;12.20;;
46745;SDS011;32493;50.514;9.678;2023-04-25T00:37:58;18.55;;;10.35;;
46745;SDS011;32493;50.514;9.678;2023-04-25T00:40:09;20.60;;;11.90;;
46745;SDS011;32493;50.514;9.678;2023-04-25T00:42:16;18.70;;;11.52;;
46745;SDS011;32493;50.514;9.678;2023-04-25T00:44:22;17.70;;;10.15;;
46745;SDS011;32493;50.514;9.678;2023-04-25T00:46:30;22.10;;;11.88;;
46745;SDS011;32493;50.514;9.678;2023-04-25T00:48:39;18.40;;;11.13;;
46745;SDS011;32493;50.514;9.678;2023-04-25T00:50:52;20.48;;;11.52;;
46745;SDS011;32493;50.514;9.678;2023-04-25T00:53:05;17.25;;;10.20;;
46745;SDS011;32493;50.514;9.678;2023-04-25T00:55:12;16.83;;;9.60;;
46745;SDS011;32493;50.514;9.678;2023-04-25T00:57:19;21.02;;;12.20;;
46745;SDS011;32493;50.514;9.678;2023-04-25T00:59:26;19.95;;;11.38;;
46745;SDS011;32493;50.514;9.678;2023-04-25T01:01:36;20.48;;;11.82;;
46745;SDS011;32493;50.514;9.678;2023-04-25T01:03:44;22.90;;;11.88;;
46745;SDS011;32493;50.514;9.678;2023-04-25T01:05:52;17.95;;;11.07;;
46745;SDS011;32493;50.514;9.678;2023-04-25T01:07:58;18.58;;;11.23;;
46745;SDS011;32493;50.514;9.678;2023-04-25T01:10:08;23.30;;;11.57;;
46745;SDS011;32493;50.514;9.678;2023-04-25T01:12:16;25.40;;;12.63;;
46745;SDS011;32493;50.514;9.678;2023-04-25T01:14:23;23.00;;;11.88;;
46745;SDS011;32493;50.514;9.678;2023-04-25T01:16:29;26.85;;;13.07;;
46745;SDS011;32493;50.514;9.678;2023-04-25T01:18:38;23.13;;;12.85;;
46745;SDS011;32493;50.514;9.678;2023-04-25T01:20:51;21.83;;;12.63;;
46745;SDS011;32493;50.514;9.678;2023-04-25T01:23:12;22.70;;;12.02;;
46745;SDS011;32493;50.514;9.678;2023-04-25T01:25:20;24.77;;;13.73;;
46745;SDS011;32493;50.514;9.678;2023-04-25T01:27:27;26.00;;;13.38;;
46745;SDS011;32493;50.514;9.678;2023-04-25T01:29:35;29.33;;;14.40;;
46745;SDS011;32493;50.514;9.678;2023-04-25T01:31:48;24.27;;;13.63;;
46745;SDS011;32493;50.514;9.678;2023-04-25T01:34:03;25.23;;;13.70;;
46745;SDS011;32493;50.514;9.678;2023-04-25T01:36:09;23.70;;;12.57;;
46745;SDS011;32493;50.514;9.678;2023-04-25T01:38:20;28.80;;;14.70;;
46745;SDS011;32493;50.514;9.678;2023-04-25T01:40:28;27.42;;;13.45;;
46745;SDS011;32493;50.514;9.678;2023-04-25T01:42:40;21.85;;;11.60;;
46745;SDS011;32493;50.514;9.678;2023-04-25T01:44:48;20.60;;;11.23;;
46745;SDS011;32493;50.514;9.678;2023-04-25T01:46:54;22.80;;;11.65;;
46745;SDS011;32493;50.514;9.678;2023-04-25T01:49:00;15.57;;;10.02;;
46745;SDS011;32493;50.514;9.678;2023-04-25T01:51:07;18.02;;;10.98;;
46745;SDS011;32493;50.514;9.678;2023-04-25T01:53:13;22.08;;;10.48;;
46745;SDS011;32493;50.514;9.678;2023-04-25T01:55:34;13.82;;;8.73;;
46745;SDS011;32493;50.514;9.678;2023-04-25T01:57:47;12.82;;;8.77;;
46745;SDS011;32493;50.514;9.678;2023-04-25T02:00:04;12.30;;;8.15;;
46745;SDS011;32493;50.514;9.678;2023-04-25T02:02:15;13.63;;;9.00;;
46745;SDS011;32493;50.514;9.678;2023-04-25T02:04:24;13.95;;;9.25;;
46745;SDS011;32493;50.514;9.678;2023-04-25T02:08:41;14.15;;;7.75;;
46745;SDS011;32493;50.514;9.678;2023-04-25T02:10:52;14.27;;;7.80;;
46745;SDS011;32493;50.514;9.678;2023-04-25T02:13:03;10.43;;;6.38;;
46745;SDS011;32493;50.514;9.678;2023-04-25T02:15:23;13.63;;;6.20;;
46745;SDS011;32493;50.514;9.678;2023-04-25T02:17:53;12.75;;;7.00;;
46745;SDS011;32493;50.514;9.678;2023-04-25T02:20:10;14.82;;;7.20;;
46745;SDS011;32493;50.514;9.678;2023-04-25T02:22:18;14.23;;;7.97;;
46745;SDS011;32493;50.514;9.678;2023-04-25T02:24:25;18.50;;;8.70;;
46745;SDS011;32493;50.514;9.678;2023-04-25T02:26:36;13.88;;;8.65;;
46745;SDS011;32493;50.514;9.678;2023-04-25T02:28:43;14.15;;;9.05;;
46745;SDS011;32493;50.514;9.678;2023-04-25T02:30:48;17.98;;;8.88;;
46745;SDS011;32493;50.514;9.678;2023-04-25T02:32:58;16.13;;;9.48;;
46745;SDS011;32493;50.514;9.678;2023-04-25T02:35:08;14.13;;;8.60;;
46745;SDS011;32493;50.514;9.678;2023-04-25T02:37:14;16.30;;;9.10;;
46745;SDS011;32493;50.514;9.678;2023-04-25T02:39:21;16.95;;;9.13;;
46745;SDS011;32493;50.514;9.678;2023-04-25T02:41:28;12.85;;;8.82;;
46745;SDS011;32493;50.514;9.678;2023-04-25T02:43:38;16.80;;;7.68;;
46745;SDS011;32493;50.514;9.678;2023-04-25T02:45:45;15.45;;;8.60;;
46745;SDS011;32493;50.514;9.678;2023-04-25T02:47:52;12.17;;;7.90;;
46745;SDS011;32493;50.514;9.678;2023-04-25T02:50:01;18.50;;;8.80;;
46745;SDS011;32493;50.514;9.678;2023-04-25T02:52:07;17.08;;;9.15;;
46745;SDS011;32493;50.514;9.678;2023-04-25T02:56:22;15.18;;;8.93;;
46745;SDS011;32493;50.514;9.678;2023-04-25T02:58:31;14.10;;;8.00;;
46745;SDS011;32493;50.514;9.678;2023-04-25T03:00:49;13.75;;;7.53;;
46745;SDS011;32493;50.514;9.678;2023-04-25T03:02:58;16.67;;;8.40;;
46745;SDS011;32493;50.514;9.678;2023-04-25T03:05:17;14.18;;;8.27;;
46745;SDS011;32493;50.514;9.678;2023-04-25T03:07:29;18.60;;;8.23;;
46745;SDS011;32493;50.514;9.678;2023-04-25T03:09:44;14.70;;;8.55;;
46745;SDS011;32493;50.514;9.678;2023-04-25T03:14:10;15.70;;;7.47;;
46745;SDS011;32493;50.514;9.678;2023-04-25T03:16:16;12.25;;;6.45;;
46745;SDS011;32493;50.514;9.678;2023-04-25T03:18:28;12.75;;;7.13;;
46745;SDS011;32493;50.514;9.678;2023-04-25T03:20:34;11.77;;;7.20;;
46745;SDS011;32493;50.514;9.678;2023-04-25T03:22:41;16.67;;;7.23;;
46745;SDS011;32493;50.514;9.678;2023-04-25T03:24:52;14.35;;;6.60;;
46745;SDS011;32493;50.514;9.678;2023-04-25T03:26:58;15.40;;;6.80;;
46745;SDS011;32493;50.514;9.678;2023-04-25T03:29:03;13.88;;;6.75;;
46745;SDS011;32493;50.514;9.678;2023-04-25T03:31:20;14.02;;;6.35;;
46745;SDS011;32493;50.514;9.678;2023-04-25T03:33:31;15.77;;;6.68;;
46745;SDS011;32493;50.514;9.678;2023-04-25T03:35:37;15.57;;;6.20;;
46745;SDS011;32493;50.514;9.678;2023-04-25T03:37:45;14.55;;;6.50;;
46745;SDS011;32493;50.514;9.678;2023-04-25T03:39:57;14.82;;;6.10;;
46745;SDS011;32493;50.514;9.678;2023-04-25T03:42:26;11.88;;;6.05;;
46745;SDS011;32493;50.514;9.678;2023-04-25T03:44:32;13.50;;;5.85;;
46745;SDS011;32493;50.514;9.678;2023-04-25T03:46:42;10.40;;;5.70;;
46745;SDS011;32493;50.514;9.678;2023-04-25T03:48:49;12.85;;;5.53;;
46745;SDS011;32493;50.514;9.678;2023-04-25T03:51:05;13.20;;;5.95;;
46745;SDS011;32493;50.514;9.678;2023-04-25T03:53:15;14.43;;;5.63;;
46745;SDS011;32493;50.514;9.678;2023-04-25T03:55:57;15.43;;;6.88;;
46745;SDS011;32493;50.514;9.678;2023-04-25T03:58:06;14.93;;;6.97;;
46745;SDS011;32493;50.514;9.678;2023-04-25T04:00:13;15.93;;;7.03;;
46745;SDS011;32493;50.514;9.678;2023-04-25T04:02:25;17.83;;;7.50;;
46745;SDS011;32493;50.514;9.678;2023-04-25T04:04:44;11.13;;;6.18;;
46745;SDS011;32493;50.514;9.678;2023-04-25T04:06:50;16.10;;;5.82;;
46745;SDS011;32493;50.514;9.678;2023-04-25T04:09:00;12.30;;;5.80;;
46745;SDS011;32493;50.514;9.678;2023-04-25T04:11:10;10.63;;;6.15;;
46745;SDS011;32493;50.514;9.678;2023-04-25T04:13:17;18.40;;;6.30;;
46745;SDS011;32493;50.514;9.678;2023-04-25T04:15:22;13.23;;;6.53;;
46745;SDS011;32493;50.514;9.678;2023-04-25T04:17:33;13.15;;;5.93;;
46745;SDS011;32493;50.514;9.678;2023-04-25T04:19:44;15.45;;;6.53;;
46745;SDS011;32493;50.514;9.678;2023-04-25T04:22:05;15.73;;;6.25;;
46745;SDS011;32493;50.514;9.678;2023-04-25T04:24:12;14.40;;;6.88;;
46745;SDS011;32493;50.514;9.678;2023-04-25T04:26:32;14.60;;;6.97;;
46745;SDS011;32493;50.514;9.678;2023-04-25T04:28:48;15.13;;;7.55;;
46745;SDS011;32493;50.514;9.678;2023-04-25T04:31:05;18.50;;;7.80;;
46745;SDS011;32493;50.514;9.678;2023-04-25T04:33:14;12.80;;;7.33;;
46745;SDS011;32493;50.514;9.678;2023-04-25T04:35:23;14.23;;;7.65;;
46745;SDS011;32493;50.514;9.678;2023-04-25T04:37:29;20.08;;;8.00;;
46745;SDS011;32493;50.514;9.678;2023-04-25T04:39:39;21.70;;;9.05;;
46745;SDS011;32493;50.514;9.678;2023-04-25T04:41:55;18.25;;;7.55;;
46745;SDS011;32493;50.514;9.678;2023-04-25T04:44:25;22.90;;;8.40;;
46745;SDS011;32493;50.514;9.678;2023-04-25T04:47:03;22.30;;;8.20;;
46745;SDS011;32493;50.514;9.678;2023-04-25T04:49:50;13.70;;;6.32;;
46745;SDS011;32493;50.514;9.678;2023-04-25T04:52:07;13.25;;;5.82;;
46745;SDS011;32493;50.514;9.678;2023-04-25T04:54:41;13.40;;;5.60;;
46745;SDS011;32493;50.514;9.678;2023-04-25T04:57:10;12.63;;;4.43;;
46745;SDS011;32493;50.514;9.678;2023-04-25T04:59:55;14.90;;;4.50;;
46745;SDS011;32493;50.514;9.678;2023-04-25T05:02:29;14.15;;;5.60;;
46745;SDS011;32493;50.514;9.678;2023-04-25T05:05:03;16.60;;;4.38;;
46745;SDS011;32493;50.514;9.678;2023-04-25T05:07:29;12.60;;;5.07;;
46745;SDS011;32493;50.514;9.678;2023-04-25T05:09:43;12.90;;;5.07;;
46745;SDS011;32493;50.514;9.678;2023-04-25T05:12:12;18.38;;;5.50;;
46745;SDS011;32493;50.514;9.678;2023-04-25T05:14:48;13.93;;;4.97;;
46745;SDS011;32493;50.514;9.678;2023-04-25T05:17:07;9.68;;;4.95;;
46745;SDS011;32493;50.514;9.678;2023-04-25T05:19:50;13.27;;;5.07;;
46745;SDS011;32493;50.514;9.678;2023-04-25T05:22:37;14.85;;;4.88;;
46745;SDS011;32493;50.514;9.678;2023-04-25T05:24:52;14.80;;;5.50;;
46745;SDS011;32493;50.514;9.678;2023-04-25T05:27:07;14.63;;;5.07;;
46745;SDS011;32493;50.514;9.678;2023-04-25T05:29:40;15.25;;;5.22;;
46745;SDS011;32493;50.514;9.678;2023-04-25T05:31:58;8.25;;;4.22;;
46745;SDS011;32493;50.514;9.678;2023-04-25T05:34:04;11.00;;;3.90;;
46745;SDS011;32493;50.514;9.678;2023-04-25T05:36:28;13.93;;;5.20;;
46745;SDS011;32493;50.514;9.678;2023-04-25T05:38:37;10.32;;;5.28;;
46745;SDS011;32493;50.514;9.678;2023-04-25T05:43:51;13.48;;;5.53;;
46745;SDS011;32493;50.514;9.678;2023-04-25T05:46:05;14.63;;;6.05;;
46745;SDS011;32493;50.514;9.678;2023-04-25T05:48:26;13.18;;;6.07;;
46745;SDS011;32493;50.514;9.678;2023-04-25T05:50:55;10.43;;;5.20;;
46745;SDS011;32493;50.514;9.678;2023-04-25T05:53:22;12.88;;;5.10;;
46745;SDS011;32493;50.514;9.678;2023-04-25T05:55:37;15.68;;;5.32;;
46745;SDS011;32493;50.514;9.678;2023-04-25T05:57:56;14.10;;;5.95;;
46745;SDS011;32493;50.514;9.678;2023-04-25T06:00:08;12.13;;;5.13;;
46745;SDS011;32493;50.514;9.678;2023-04-25T06:02:23;13.82;;;6.13;;
46745;SDS011;32493;50.514;9.678;2023-04-25T06:04:33;12.85;;;5.53;;
46745;SDS011;32493;50.514;9.678;2023-04-25T06:06:43;14.20;;;5.45;;
46745;SDS011;32493;50.514;9.678;2023-04-25T06:08:48;12.55;;;5.88;;
46745;SDS011;32493;50.514;9.678;2023-04-25T06:10:58;13.32;;;5.38;;
46745;SDS011;32493;50.514;9.678;2023-04-25T06:13:04;8.80;;;4.60;;
46745;SDS011;32493;50.514;9.678;2023-04-25T06:15:10;12.75;;;6.22;;
46745;SDS011;32493;50.514;9.678;2023-04-25T06:17:35;13.55;;;5.72;;
46745;SDS011;32493;50.514;9.678;2023-04-25T06:19:40;12.85;;;6.28;;
46745;SDS011;32493;50.514;9.678;2023-04-25T06:21:48;13.82;;;5.30;;
46745;SDS011;32493;50.514;9.678;2023-04-25T06:23:54;11.10;;;5.00;;
46745;SDS011;32493;50.514;9.678;2023-04-25T06:26:14;14.38;;;5.53;;
46745;SDS011;32493;50.514;9.678;2023-04-25T06:28:24;8.52;;;4.38;;
46745;SDS011;32493;50.514;9.678;2023-04-25T06:30:30;12.10;;;5.40;;
46745;SDS011;32493;50.514;9.678;2023-04-25T06:32:45;11.00;;;4.25;;
46745;SDS011;32493;50.514;9.678;2023-04-25T06:35:03;13.07;;;5.38;;
46745;SDS011;32493;50.514;9.678;2023-04-25T06:37:11;11.10;;;5.25;;
46745;SDS011;32493;50.514;9.678;2023-04-25T06:39:16;6.63;;;3.70;;
46745;SDS011;32493;50.514;9.678;2023-04-25T06:41:34;10.85;;;5.13;;
46745;SDS011;32493;50.514;9.678;2023-04-25T06:44:14;8.60;;;4.20;;
46745;SDS011;32493;50.514;9.678;2023-04-25T06:46:28;8.43;;;4.43;;
46745;SDS011;32493;50.514;9.678;2023-04-25T06:48:36;8.57;;;4.22;;
46745;SDS011;32493;50.514;9.678;2023-04-25T06:50:42;10.73;;;5.15;;
46745;SDS011;32493;50.514;9.678;2023-04-25T06:52:51;7.57;;;4.65;;
46745;SDS011;32493;50.514;9.678;2023-04-25T06:55:01;11.27;;;5.28;;
46745;SDS011;32493;50.514;9.678;2023-04-25T06:57:25;9.85;;;5.00;;
46745;SDS011;32493;50.514;9.678;2023-04-25T06:59:46;12.50;;;5.65;;
46745;SDS011;32493;50.514;9.678;2023-04-25T07:01:53;8.25;;;3.95;;
46745;SDS011;32493;50.514;9.678;2023-04-25T07:04:01;9.07;;;4.78;;
46745;SDS011;32493;50.514;9.678;2023-04-25T07:06:16;7.72;;;4.70;;
46745;SDS011;32493;50.514;9.678;2023-04-25T07:08:22;9.48;;;4.38;;
46745;SDS011;32493;50.514;9.678;2023-04-25T07:10:31;10.07;;;4.55;;
46745;SDS011;32493;50.514;9.678;2023-04-25T07:12:42;7.53;;;3.97;;
46745;SDS011;32493;50.514;9.678;2023-04-25T07:14:51;5.97;;;4.07;;
46745;SDS011;32493;50.514;9.678;2023-04-25T07:16:58;8.35;;;4.35;;
46745;SDS011;32493;50.514;9.678;2023-04-25T07:19:08;6.82;;;4.07;;
46745;SDS011;32493;50.514;9.678;2023-04-25T07:21:19;7.03;;;3.60;;
46745;SDS011;32493;50.514;9.678;2023-04-25T07:23:27;6.75;;;3.97;;
46745;SDS011;32493;50.514;9.678;2023-04-25T07:25:35;8.63;;;4.05;;
46745;SDS011;32493;50.514;9.678;2023-04-25T07:27:45;7.80;;;4.03;;
46745;SDS011;32493;50.514;9.678;2023-04-25T07:29:53;7.97;;;3.30;;
46745;SDS011;32493;50.514;9.678;2023-04-25T07:31:58;7.65;;;4.07;;
46745;SDS011;32493;50.514;9.678;2023-04-25T07:34:04;10.75;;;4.18;;
46745;SDS011;32493;50.514;9.678;2023-04-25T07:36:12;8.10;;;3.83;;
46745;SDS011;32493;50.514;9.678;2023-04-25T07:38:21;7.15;;;3.58;;
46745;SDS011;32493;50.514;9.678;2023-04-25T07:40:29;8.00;;;3.42;;
46745;SDS011;32493;50.514;9.678;2023-04-25T07:42:41;6.38;;;3.47;;
46745;SDS011;32493;50.514;9.678;2023-04-25T07:44:59;5.38;;;3.00;;
46745;SDS011;32493;50.514;9.678;2023-04-25T07:47:05;6.05;;;3.28;;
46745;SDS011;32493;50.514;9.678;2023-04-25T07:49:11;4.85;;;2.95;;
46745;SDS011;32493;50.514;9.678;2023-04-25T07:51:28;7.43;;;3.30;;
46745;SDS011;32493;50.514;9.678;2023-04-25T07:53:40;4.57;;;3.10;;
46745;SDS011;32493;50.514;9.678;2023-04-25T07:55:49;5.40;;;3.05;;
46745;SDS011;32493;50.514;9.678;2023-04-25T07:57:57;6.50;;;3.28;;
46745;SDS011;32493;50.514;9.678;2023-04-25T08:00:09;4.10;;;2.08;;
46745;SDS011;32493;50.514;9.678;2023-04-25T08:02:23;6.78;;;3.42;;
46745;SDS011;32493;50.514;9.678;2023-04-25T08:04:30;5.22;;;3.10;;
46745;SDS011;32493;50.514;9.678;2023-04-25T08:06:42;2.97;;;2.00;;
46745;SDS011;32493;50.514;9.678;2023-04-25T08:08:52;6.63;;;2.38;;
46745;SDS011;32493;50.514;9.678;2023-04-25T08:11:08;6.35;;;2.90;;
46745;SDS011;32493;50.514;9.678;2023-04-25T08:13:15;7.30;;;3.05;;
46745;SDS011;32493;50.514;9.678;2023-04-25T08:15:25;5.93;;;3.15;;
46745;SDS011;32493;50.514;9.678;2023-04-25T08:17:31;8.50;;;3.90;;
46745;SDS011;32493;50.514;9.678;2023-04-25T08:19:40;6.45;;;3.45;;
46745;SDS011;32493;50.514;9.678;2023-04-25T08:21:55;5.93;;;3.13;;
46745;SDS011;32493;50.514;9.678;2023-04-25T08:24:13;5.65;;;3.58;;
46745;SDS011;32493;50.514;9.678;2023-04-25T08:26:18;5.25;;;3.08;;
46745;SDS011;32493;50.514;9.678;2023-04-25T08:28:25;5.55;;;3.08;;
46745;SDS011;32493;50.514;9.678;2023-04-25T08:30:36;5.40;;;3.50;;
46745;SDS011;32493;50.514;9.678;2023-04-25T08:32:51;5.57;;;3.13;;
46745;SDS011;32493;50.514;9.678;2023-04-25T08:35:19;5.15;;;3.47;;
46745;SDS011;32493;50.514;9.678;2023-04-25T08:37:25;4.22;;;3.13;;
46745;SDS011;32493;50.514;9.678;2023-04-25T08:39:35;4.93;;;2.97;;
46745;SDS011;32493;50.514;9.678;2023-04-25T08:42:09;9.60;;;3.53;;
46745;SDS011;32493;50.514;9.678;2023-04-25T08:44:17;4.63;;;2.63;;
46745;SDS011;32493;50.514;9.678;2023-04-25T08:46:30;7.07;;;3.15;;
46745;SDS011;32493;50.514;9.678;2023-04-25T08:48:46;4.63;;;2.47;;
46745;SDS011;32493;50.514;9.678;2023-04-25T08:50:55;3.88;;;2.33;;
46745;SDS011;32493;50.514;9.678;2023-04-25T08:53:04;3.78;;;2.38;;
46745;SDS011;32493;50.514;9.678;2023-04-25T08:55:15;2.92;;;2.60;;
46745;SDS011;32493;50.514;9.678;2023-04-25T08:57:23;5.57;;;2.90;;
46745;SDS011;32493;50.514;9.678;2023-04-25T08:59:32;4.18;;;2.70;;
46745;SDS011;32493;50.514;9.678;2023-04-25T09:01:47;4.30;;;2.50;;
46745;SDS011;32493;50.514;9.678;2023-04-25T09:03:57;3.13;;;2.00;;
46745;SDS011;32493;50.514;9.678;2023-04-25T09:06:09;2.83;;;1.90;;
46745;SDS011;32493;50.514;9.678;2023-04-25T09:08:15;3.28;;;1.70;;
46745;SDS011;32493;50.514;9.678;2023-04-25T09:10:23;4.20;;;1.80;;
46745;SDS011;32493;50.514;9.678;2023-04-25T09:12:33;6.75;;;2.42;;
46745;SDS011;32493;50.514;9.678;2023-04-25T09:14:43;4.80;;;2.20;;
46745;SDS011;32493;50.514;9.678;2023-04-25T09:17:43;5.50;;;2.40;;
46745;SDS011;32493;50.514;9.678;2023-04-25T09:19:49;3.28;;;2.00;;
46745;SDS011;32493;50.514;9.678;2023-04-25T09:22:05;7.60;;;2.67;;
46745;SDS011;32493;50.514;9.678;2023-04-25T09:24:11;5.23;;;2.60;;
46745;SDS011;32493;50.514;9.678;2023-04-25T09:26:17;4.90;;;2.00;;
46745;SDS011;32493;50.514;9.678;2023-04-25T09:28:25;3.70;;;1.80;;
46745;SDS011;32493;50.514;9.678;2023-04-25T09:30:36;2.35;;;1.90;;
46745;SDS011;32493;50.514;9.678;2023-04-25T09:33:00;1.75;;;1.42;;
46745;SDS011;32493;50.514;9.678;2023-04-25T09:35:10;3.20;;;1.63;;
46745;SDS011;32493;50.514;9.678;2023-04-25T09:37:34;3.03;;;1.45;;
46745;SDS011;32493;50.514;9.678;2023-04-25T09:40:24;3.08;;;1.40;;
46745;SDS011;32493;50.514;9.678;2023-04-25T09:42:44;3.47;;;1.50;;
46745;SDS011;32493;50.514;9.678;2023-04-25T09:46:59;3.47;;;1.60;;
46745;SDS011;32493;50.514;9.678;2023-04-25T09:49:08;4.43;;;1.70;;
46745;SDS011;32493;50.514;9.678;2023-04-25T09:51:55;3.15;;;1.52;;
46745;SDS011;32493;50.514;9.678;2023-04-25T09:54:09;4.28;;;1.80;;
46745;SDS011;32493;50.514;9.678;2023-04-25T09:56:18;1.98;;;1.70;;
46745;SDS011;32493;50.514;9.678;2023-04-25T09:58:26;6.75;;;2.03;;
46745;SDS011;32493;50.514;9.678;2023-04-25T10:00:35;4.00;;;2.03;;
46745;SDS011;32493;50.514;9.678;2023-04-25T10:02:55;5.65;;;3.05;;
46745;SDS011;32493;50.514;9.678;2023-04-25T10:05:38;4.32;;;2.20;;
46745;SDS011;32493;50.514;9.678;2023-04-25T10:07:45;4.45;;;2.17;;
46745;SDS011;32493;50.514;9.678;2023-04-25T10:09:54;4.68;;;2.50;;
46745;SDS011;32493;50.514;9.678;2023-04-25T10:12:06;6.53;;;2.67;;
46745;SDS011;32493;50.514;9.678;2023-04-25T10:14:12;6.25;;;2.40;;
46745;SDS011;32493;50.514;9.678;2023-04-25T10:16:23;5.47;;;2.28;;
46745;SDS011;32493;50.514;9.678;2023-04-25T10:18:33;9.68;;;2.38;;
46745;SDS011;32493;50.514;9.678;2023-04-25T10:20:41;4.68;;;2.55;;
46745;SDS011;32493;50.514;9.678;2023-04-25T10:22:50;4.72;;;2.20;;
46745;SDS011;32493;50.514;9.678;2023-04-25T10:25:04;4.18;;;2.30;;
46745;SDS011;32493;50.514;9.678;2023-04-25T10:27:13;3.78;;;2.10;;
46745;SDS011;32493;50.514;9.678;2023-04-25T10:29:21;3.50;;;2.13;;
46745;SDS011;32493;50.514;9.678;2023-04-25T10:31:29;8.65;;;2.72;;
46745;SDS011;32493;50.514;9.678;2023-04-25T10:33:45;4.85;;;2.47;;
46745;SDS011;32493;50.514;9.678;2023-04-25T10:35:53;3.80;;;2.50;;
46745;SDS011;32493;50.514;9.678;2023-04-25T10:38:04;6.03;;;2.70;;
46745;SDS011;32493;50.514;9.678;2023-04-25T10:40:15;9.18;;;3.38;;
46745;SDS011;32493;50.514;9.678;2023-04-25T10:42:26;6.97;;;2.70;;
46745;SDS011;32493;50.514;9.678;2023-04-25T10:44:39;5.72;;;2.50;;
46745;SDS011;32493;50.514;9.678;2023-04-25T10:46:48;5.50;;;1.83;;
46745;SDS011;32493;50.514;9.678;2023-04-25T10:48:53;9.02;;;3.38;;
46745;SDS011;32493;50.514;9.678;2023-04-25T10:51:16;7.50;;;2.67;;
46745;SDS011;32493;50.514;9.678;2023-04-25T10:53:24;4.63;;;2.20;;
46745;SDS011;32493;50.514;9.678;2023-04-25T10:57:53;8.88;;;2.70;;
46745;SDS011;32493;50.514;9.678;2023-04-25T11:00:05;6.57;;;2.88;;
46745;SDS011;32493;50.514;9.678;2023-04-25T11:02:17;8.57;;;2.72;;
46745;SDS011;32493;50.514;9.678;2023-04-25T11:04:24;7.30;;;2.80;;
46745;SDS011;32493;50.514;9.678;2023-04-25T11:06:42;8.18;;;2.67;;
46745;SDS011;32493;50.514;9.678;2023-04-25T11:09:27;5.57;;;2.58;;
46745;SDS011;32493;50.514;9.678;2023-04-25T11:11:36;7.40;;;2.90;;
46745;SDS011;32493;50.514;9.678;2023-04-25T11:13:44;7.95;;;3.10;;
46745;SDS011;32493;50.514;9.678;2023-04-25T11:15:53;7.18;;;2.40;;
46745;SDS011;32493;50.514;9.678;2023-04-25T11:18:15;8.98;;;3.42;;
46745;SDS011;32493;50.514;9.678;2023-04-25T11:20:24;9.45;;;2.10;;
46745;SDS011;32493;50.514;9.678;2023-04-25T11:25:26;8.57;;;2.45;;
46745;SDS011;32493;50.514;9.678;2023-04-25T11:27:39;8.40;;;2.22;;
46745;SDS011;32493;50.514;9.678;2023-04-25T11:29:57;6.60;;;2.33;;
46745;SDS011;32493;50.514;9.678;2023-04-25T11:32:02;5.32;;;2.50;;
46745;SDS011;32493;50.514;9.678;2023-04-25T11:34:09;8.13;;;2.20;;
46745;SDS011;32493;50.514;9.678;2023-04-25T11:36:15;7.85;;;2.13;;
46745;SDS011;32493;50.514;9.678;2023-04-25T11:38:24;5.35;;;2.10;;
46745;SDS011;32493;50.514;9.678;2023-04-25T11:40:32;4.72;;;2.03;;
46745;SDS011;32493;50.514;9.678;2023-04-25T11:42:56;7.88;;;2.33;;
46745;SDS011;32493;50.514;9.678;2023-04-25T11:45:06;6.65;;;2.08;;
46745;SDS011;32493;50.514;9.678;2023-04-25T11:47:12;5.50;;;2.08;;
46745;SDS011;32493;50.514;9.678;2023-04-25T11:49:18;8.60;;;2.50;;
46745;SDS011;32493;50.514;9.678;2023-04-25T11:51:26;6.13;;;2.10;;
46745;SDS011;32493;50.514;9.678;2023-04-25T11:53:38;7.88;;;2.70;;
46745;SDS011;32493;50.514;9.678;2023-04-25T11:55:48;5.97;;;2.42;;
46745;SDS011;32493;50.514;9.678;2023-04-25T11:57:55;8.10;;;2.58;;
46745;SDS011;32493;50.514;9.678;2023-04-25T12:00:10;8.23;;;2.35;;
46745;SDS011;32493;50.514;9.678;2023-04-25T12:02:27;5.53;;;2.40;;
46745;SDS011;32493;50.514;9.678;2023-04-25T12:04:33;6.32;;;2.10;;
46745;SDS011;32493;50.514;9.678;2023-04-25T12:06:39;6.63;;;2.45;;
46745;SDS011;32493;50.514;9.678;2023-04-25T12:11:20;6.68;;;2.70;;
46745;SDS011;32493;50.514;9.678;2023-04-25T12:13:28;6.80;;;2.20;;
46745;SDS011;32493;50.514;9.678;2023-04-25T12:15:33;11.85;;;2.65;;
46745;SDS011;32493;50.514;9.678;2023-04-25T12:17:41;8.75;;;2.35;;
46745;SDS011;32493;50.514;9.678;2023-04-25T12:19:49;9.38;;;2.75;;
46745;SDS011;32493;50.514;9.678;2023-04-25T12:21:55;8.85;;;2.17;;
46745;SDS011;32493;50.514;9.678;2023-04-25T12:24:15;10.32;;;2.30;;
46745;SDS011;32493;50.514;9.678;2023-04-25T12:26:24;7.63;;;2.13;;
46745;SDS011;32493;50.514;9.678;2023-04-25T12:28:31;7.82;;;2.13;;
46745;SDS011;32493;50.514;9.678;2023-04-25T12:33:06;6.40;;;1.95;;
46745;SDS011;32493;50.514;9.678;2023-04-25T12:35:12;7.07;;;1.88;;
46745;SDS011;32493;50.514;9.678;2023-04-25T12:37:17;7.93;;;1.83;;
46745;SDS011;32493;50.514;9.678;2023-04-25T12:39:28;4.53;;;2.00;;
46745;SDS011;32493;50.514;9.678;2023-04-25T12:41:40;7.30;;;1.67;;
46745;SDS011;32493;50.514;9.678;2023-04-25T12:43:47;6.82;;;2.30;;
46745;SDS011;32493;50.514;9.678;2023-04-25T12:45:52;9.60;;;2.38;;
46745;SDS011;32493;50.514;9.678;2023-04-25T12:48:11;4.70;;;1.90;;
46745;SDS011;32493;50.514;9.678;2023-04-25T12:50:17;8.48;;;2.25;;
46745;SDS011;32493;50.514;9.678;2023-04-25T12:52:37;5.90;;;1.83;;
46745;SDS011;32493;50.514;9.678;2023-04-25T12:54:47;7.93;;;2.00;;
46745;SDS011;32493;50.514;9.678;2023-04-25T12:56:53;7.40;;;2.00;;
46745;SDS011;32493;50.514;9.678;2023-04-25T12:58:59;8.63;;;2.33;;
46745;SDS011;32493;50.514;9.678;2023-04-25T13:01:05;6.55;;;2.55;;
46745;SDS011;32493;50.514;9.678;2023-04-25T13:03:14;8.20;;;1.90;;
46745;SDS011;32493;50.514;9.678;2023-04-25T13:05:22;6.55;;;2.38;;
46745;SDS011;32493;50.514;9.678;2023-04-25T13:07:28;8.05;;;2.40;;
46745;SDS011;32493;50.514;9.678;2023-04-25T13:09:36;8.00;;;2.38;;
46745;SDS011;32493;50.514;9.678;2023-04-25T13:11:47;5.85;;;2.08;;
46745;SDS011;32493;50.514;9.678;2023-04-25T13:13:58;6.97;;;2.20;;
46745;SDS011;32493;50.514;9.678;2023-04-25T13:16:04;6.43;;;1.60;;
46745;SDS011;32493;50.514;9.678;2023-04-25T13:18:19;7.13;;;1.92;;
46745;SDS011;32493;50.514;9.678;2023-04-25T13:20:27;7.80;;;1.80;;
46745;SDS011;32493;50.514;9.678;2023-04-25T13:22:42;7.45;;;1.73;;
46745;SDS011;32493;50.514;9.678;2023-04-25T13:24:55;8.98;;;2.15;;
46745;SDS011;32493;50.514;9.678;2023-04-25T13:27:04;7.03;;;1.90;;
46745;SDS011;32493;50.514;9.678;2023-04-25T13:29:10;6.82;;;1.70;;
46745;SDS011;32493;50.514;9.678;2023-04-25T13:31:23;6.22;;;1.58;;